createdAt,value
2019-01-19T20:54:58.620Z,65.92
2019-01-19T20:57:26.910Z,67.36
2019-01-19T20:59:55.156Z,69.09
2019-01-19T21:02:23.495Z,69.61
2019-01-19T21:04:51.754Z,70.45
2019-01-19T21:07:20.357Z,71.23
2019-01-19T21:09:48.740Z,71.61
2019-01-19T21:12:17.525Z,72.16
2019-01-19T21:14:45.767Z,72.47
2019-01-19T21:17:14.064Z,72.85
2019-01-19T21:19:42.311Z,72.85
2019-01-19T21:22:10.564Z,73.26
2019-01-19T21:24:38.925Z,73.80
2019-01-19T21:27:07.326Z,73.92
2019-01-19T21:29:35.622Z,74.21
2019-01-19T21:32:04.196Z,74.46
2019-01-19T21:34:32.528Z,75.00
2019-01-19T21:37:00.773Z,75.19
2019-01-19T21:39:29.077Z,75.28
2019-01-19T21:41:57.327Z,75.18
2019-01-19T21:44:25.629Z,75.21
2019-01-19T21:46:54.210Z,75.18
2019-01-19T21:49:22.901Z,75.50
2019-01-19T21:51:51.199Z,76.08
2019-01-19T21:54:19.499Z,76.06
2019-01-19T21:56:47.792Z,76.25
2019-01-19T21:59:16.049Z,76.11
2019-01-19T22:01:44.595Z,76.35
2019-01-19T22:04:13.099Z,76.36
2019-01-19T22:06:41.460Z,76.46
2019-01-19T22:09:09.755Z,76.93
2019-01-19T22:11:38.292Z,77.04
2019-01-19T22:14:06.548Z,77.11
2019-01-19T22:16:34.857Z,77.09
2019-01-19T22:19:04.188Z,77.24
2019-01-19T22:21:32.736Z,77.25
2019-01-19T22:24:01.023Z,77.50
2019-01-19T22:26:29.539Z,77.87
2019-01-19T22:28:57.947Z,77.90
2019-01-19T22:31:26.187Z,77.77
2019-01-19T22:33:54.479Z,77.89
2019-01-19T22:36:22.729Z,78.19
2019-01-19T22:38:51.022Z,78.27
2019-01-19T22:41:19.266Z,78.20
2019-01-19T22:43:47.531Z,78.42
2019-01-19T22:46:15.991Z,78.31
2019-01-19T22:48:44.246Z,78.11
2019-01-19T22:51:12.549Z,78.20
2019-01-19T22:53:40.837Z,78.51
2019-01-19T22:56:09.095Z,78.49
2019-01-19T22:58:37.763Z,78.55
2019-01-19T23:01:24.407Z,78.53
2019-01-19T23:03:52.716Z,78.73
2019-01-19T23:06:20.976Z,78.85
2019-01-19T23:08:49.266Z,78.88
2019-01-19T23:11:17.515Z,79.33
2019-01-19T23:13:45.803Z,79.41
2019-01-19T23:16:14.092Z,79.54
2019-01-19T23:18:42.355Z,79.28
2019-01-19T23:21:10.624Z,79.36
2019-01-19T23:23:38.928Z,79.26
2019-01-19T23:26:07.249Z,79.38
2019-01-19T23:28:35.545Z,79.38
2019-01-19T23:31:04.161Z,79.24
2019-01-19T23:33:32.410Z,79.46
2019-01-19T23:36:00.700Z,79.53
2019-01-19T23:38:28.958Z,79.33
2019-01-19T23:40:57.248Z,79.30
2019-01-19T23:43:25.495Z,79.47
2019-01-19T23:45:53.749Z,79.57
2019-01-19T23:48:22.063Z,79.47
2019-01-19T23:50:50.342Z,79.37
2019-01-19T23:53:18.696Z,79.56
2019-01-19T23:55:46.984Z,79.52
2019-01-19T23:58:15.247Z,79.50
